Zia Pueblo, NM

5:57 PM MST on December 17, 2014 (GMT -0700)
US-550 and NW Loop | Change Station
CLOSE
Current Station
Personal Weather Station
Location: Rio Rancho, NM
Elevation: 5600 ft
Nearby Weather Stations
Active Advisory: Winter Weather Advisory Active Notice: Public Information Statement

Elev 5600 ft 35.37 °N, 106.64 °W | Updated 7 minutes ago

Overcast
Overcast
36.3 °F
Feels Like 36 °F
N
0.0
Wind Variable Wind from North
Gusts 0.0 mph

Today
High -- | Low -- °F
--% Chance of Precip.
Yesterday
High -- | Low -- °F
Precip. -- in
7:10 AM 4:56 PM
Waning Crescent, 18% visible
Pressure 30.03 in
Visibility 10.0 miles
Clouds Mostly Cloudy 4500 ft
Overcast 9500 ft
Windchill 36 °F
Dew Point 35 °F
Humidity 95%
Rainfall 0.25 in
Snow Depth Not available.
UV 0 out of 12
Pollen 3.30 out of 12
Air Quality Not available.
Flu Activity Not available.
METAR KAEG 180048Z 13003KT 10SM BKN045 OVC095 02/01 A3003

More Conditions Fewer Conditions

Pressure 30.03 in
Visibility 10.0 miles
Clouds Mostly Cloudy 4500 ft
Overcast 9500 ft
Windchill 36 °F
Dew Point 35 °F
Humidity 95%
Rainfall 0.25 in
Snow Depth Not available.
UV 0 out of 12
Pollen 3.30 out of 12
Air Quality Not available.
Flu Activity Not available.
METAR KAEG 180048Z 13003KT 10SM BKN045 OVC095 02/01 A3003

More Conditions Fewer Conditions

Nowcast | as of 5:46 PM MST on December 17, 2014

Showers of high country snow and low country rain with a mix in between will continue through mid evening. In Mora and western Colfax counties...snow will continue near Angel Fire...Eagle Nest... Chacon...and Holman. In Rio Arriba County and northern Santa Fe County...snow showers will move toward ghost ranch...Abiquiu...and El Rito. More snow near Los Alamos will move across northern Santa Fe County toward Santa Pueblo and San Ildefonso Pueblo...and on toward cuyamunge and Chupadero. Expect snowfall up to an inch...with snow mixed with rain over the valleys and lower slopes. Elsewhere...expect less than an inch of fresh snow...with rain mixed with snow in valleys and lower slopes. Visibilities will be reduced in fog through mid evening.

×

10-Day Weather Forecast

Almanac

Astronomy

Dec. 17, 2014 Rise Set
Actual Time
Civil Twilight
Nautical Twilight
Astronomical Twilight
Moon
Length of Visible Light
Length of Day
Tomorrow will be .
, % of the Moon is Illuminated

Today's Extremes

State Highs State Lows

Community

WunderPhotos

Upload Photos

1,778,837 photos uploaded!

WunderBlogs® & News

Nearby

Air Quality

  Air Quality AQ Index Pollutant
Not available.

Snow Depth

Station Depth Elevation

Earthquake Activity

City Distance Mag. Time & Date
Minimum magnitude displayed is 2.5.

Coastal Water Temperatures

Place Temperature

Nearby Weather Stations